sensor_id;sensor_type;location;lat;lon;timestamp;P1;durP1;ratioP1;P2;durP2;ratioP2
6902;SDS011;20232;49.408;8.702;2024-01-25T05:01:22;18.20;;;3.93;;
6902;SDS011;20232;49.408;8.702;2024-01-25T05:03:48;14.67;;;4.53;;
6902;SDS011;20232;49.408;8.702;2024-01-25T05:06:14;20.63;;;4.30;;
6902;SDS011;20232;49.408;8.702;2024-01-25T05:08:41;15.30;;;3.97;;
6902;SDS011;20232;49.408;8.702;2024-01-25T05:11:07;17.33;;;3.63;;
6902;SDS011;20232;49.408;8.702;2024-01-25T05:13:34;15.73;;;3.73;;
6902;SDS011;20232;49.408;8.702;2024-01-25T05:15:59;17.87;;;4.07;;
6902;SDS011;20232;49.408;8.702;2024-01-25T05:18:24;18.93;;;4.20;;
6902;SDS011;20232;49.408;8.702;2024-01-25T05:20:50;14.93;;;3.93;;
6902;SDS011;20232;49.408;8.702;2024-01-25T05:23:15;19.27;;;4.33;;
6902;SDS011;20232;49.408;8.702;2024-01-25T05:25:41;18.13;;;4.20;;
6902;SDS011;20232;49.408;8.702;2024-01-25T05:28:06;20.10;;;4.07;;
6902;SDS011;20232;49.408;8.702;2024-01-25T05:30:32;18.40;;;4.73;;
6902;SDS011;20232;49.408;8.702;2024-01-25T05:32:57;18.93;;;4.23;;
6902;SDS011;20232;49.408;8.702;2024-01-25T05:35:22;17.47;;;4.20;;
6902;SDS011;20232;49.408;8.702;2024-01-25T05:37:49;20.40;;;4.43;;
6902;SDS011;20232;49.408;8.702;2024-01-25T05:40:14;24.43;;;5.33;;
6902;SDS011;20232;49.408;8.702;2024-01-25T05:42:40;16.80;;;4.67;;
6902;SDS011;20232;49.408;8.702;2024-01-25T05:45:05;16.57;;;3.90;;
6902;SDS011;20232;49.408;8.702;2024-01-25T05:47:31;15.20;;;4.00;;
6902;SDS011;20232;49.408;8.702;2024-01-25T05:49:57;17.90;;;4.20;;
6902;SDS011;20232;49.408;8.702;2024-01-25T05:52:23;15.67;;;3.93;;
6902;SDS011;20232;49.408;8.702;2024-01-25T05:54:49;18.17;;;4.03;;
6902;SDS011;20232;49.408;8.702;2024-01-25T05:57:15;23.30;;;4.50;;
6902;SDS011;20232;49.408;8.702;2024-01-25T05:59:40;13.53;;;3.70;;
6902;SDS011;20232;49.408;8.702;2024-01-25T06:02:06;17.07;;;4.23;;
6902;SDS011;20232;49.408;8.702;2024-01-25T06:04:31;17.80;;;3.43;;
6902;SDS011;20232;49.408;8.702;2024-01-25T06:06:56;14.90;;;4.33;;
6902;SDS011;20232;49.408;8.702;2024-01-25T06:09:23;20.50;;;3.93;;
6902;SDS011;20232;49.408;8.702;2024-01-25T06:11:49;20.73;;;5.10;;
6902;SDS011;20232;49.408;8.702;2024-01-25T06:14:15;21.93;;;4.37;;
6902;SDS011;20232;49.408;8.702;2024-01-25T06:16:40;20.80;;;4.53;;
6902;SDS011;20232;49.408;8.702;2024-01-25T06:19:06;21.93;;;4.00;;
6902;SDS011;20232;49.408;8.702;2024-01-25T06:21:32;20.00;;;4.03;;
6902;SDS011;20232;49.408;8.702;2024-01-25T06:24:00;16.60;;;4.37;;
6902;SDS011;20232;49.408;8.702;2024-01-25T06:26:26;22.63;;;4.97;;
6902;SDS011;20232;49.408;8.702;2024-01-25T06:28:52;23.23;;;4.50;;
6902;SDS011;20232;49.408;8.702;2024-01-25T06:31:17;15.53;;;4.23;;
6902;SDS011;20232;49.408;8.702;2024-01-25T06:33:42;23.37;;;4.73;;
6902;SDS011;20232;49.408;8.702;2024-01-25T06:36:12;20.30;;;7.20;;
6902;SDS011;20232;49.408;8.702;2024-01-25T06:38:40;19.60;;;4.33;;
6902;SDS011;20232;49.408;8.702;2024-01-25T06:41:05;17.27;;;4.27;;
6902;SDS011;20232;49.408;8.702;2024-01-25T06:43:30;21.70;;;4.40;;
6902;SDS011;20232;49.408;8.702;2024-01-25T06:45:56;18.47;;;4.27;;
6902;SDS011;20232;49.408;8.702;2024-01-25T06:48:21;18.63;;;4.10;;
6902;SDS011;20232;49.408;8.702;2024-01-25T06:50:47;18.37;;;4.50;;
6902;SDS011;20232;49.408;8.702;2024-01-25T06:53:12;15.30;;;4.47;;
6902;SDS011;20232;49.408;8.702;2024-01-25T06:55:38;21.43;;;5.10;;
6902;SDS011;20232;49.408;8.702;2024-01-25T06:58:03;21.57;;;5.87;;
6902;SDS011;20232;49.408;8.702;2024-01-25T07:00:28;24.27;;;4.60;;
6902;SDS011;20232;49.408;8.702;2024-01-25T07:02:54;18.83;;;4.67;;
6902;SDS011;20232;49.408;8.702;2024-01-25T07:05:19;20.07;;;4.43;;
6902;SDS011;20232;49.408;8.702;2024-01-25T07:07:45;17.57;;;5.13;;
6902;SDS011;20232;49.408;8.702;2024-01-25T07:10:10;16.37;;;4.57;;
6902;SDS011;20232;49.408;8.702;2024-01-25T07:12:35;18.40;;;4.40;;
6902;SDS011;20232;49.408;8.702;2024-01-25T07:15:01;16.10;;;4.40;;
6902;SDS011;20232;49.408;8.702;2024-01-25T07:17:27;19.27;;;4.70;;
6902;SDS011;20232;49.408;8.702;2024-01-25T07:19:52;20.63;;;4.80;;
6902;SDS011;20232;49.408;8.702;2024-01-25T07:22:18;18.53;;;4.70;;
6902;SDS011;20232;49.408;8.702;2024-01-25T07:24:43;16.80;;;3.80;;
6902;SDS011;20232;49.408;8.702;2024-01-25T07:27:09;12.17;;;4.03;;
6902;SDS011;20232;49.408;8.702;2024-01-25T07:29:35;12.57;;;4.07;;
6902;SDS011;20232;49.408;8.702;2024-01-25T07:32:01;14.13;;;4.33;;
6902;SDS011;20232;49.408;8.702;2024-01-25T07:34:27;23.97;;;5.07;;
6902;SDS011;20232;49.408;8.702;2024-01-25T07:36:53;17.23;;;4.20;;
6902;SDS011;20232;49.408;8.702;2024-01-25T07:39:18;15.87;;;4.47;;
6902;SDS011;20232;49.408;8.702;2024-01-25T07:41:43;17.43;;;3.87;;
6902;SDS011;20232;49.408;8.702;2024-01-25T07:44:09;12.60;;;3.57;;
6902;SDS011;20232;49.408;8.702;2024-01-25T07:46:34;16.27;;;4.43;;
6902;SDS011;20232;49.408;8.702;2024-01-25T07:49:00;22.33;;;4.43;;
6902;SDS011;20232;49.408;8.702;2024-01-25T07:51:25;16.37;;;4.57;;
6902;SDS011;20232;49.408;8.702;2024-01-25T07:53:53;24.47;;;3.90;;
6902;SDS011;20232;49.408;8.702;2024-01-25T07:56:19;20.77;;;4.23;;
6902;SDS011;20232;49.408;8.702;2024-01-25T07:58:47;21.90;;;4.67;;
6902;SDS011;20232;49.408;8.702;2024-01-25T08:01:13;21.53;;;4.60;;
6902;SDS011;20232;49.408;8.702;2024-01-25T08:03:42;19.37;;;3.97;;
6902;SDS011;20232;49.408;8.702;2024-01-25T08:06:07;19.13;;;4.23;;
6902;SDS011;20232;49.408;8.702;2024-01-25T08:08:33;19.07;;;4.67;;
6902;SDS011;20232;49.408;8.702;2024-01-25T08:10:58;23.90;;;4.73;;
6902;SDS011;20232;49.408;8.702;2024-01-25T08:13:24;24.77;;;4.47;;
6902;SDS011;20232;49.408;8.702;2024-01-25T08:15:50;24.47;;;4.57;;
6902;SDS011;20232;49.408;8.702;2024-01-25T08:18:16;17.67;;;4.00;;
6902;SDS011;20232;49.408;8.702;2024-01-25T08:20:44;18.10;;;4.23;;
6902;SDS011;20232;49.408;8.702;2024-01-25T08:23:09;17.57;;;4.53;;
6902;SDS011;20232;49.408;8.702;2024-01-25T08:25:35;16.00;;;4.20;;
6902;SDS011;20232;49.408;8.702;2024-01-25T08:28:00;18.83;;;4.90;;
6902;SDS011;20232;49.408;8.702;2024-01-25T08:30:25;23.23;;;4.87;;
6902;SDS011;20232;49.408;8.702;2024-01-25T08:32:51;19.43;;;4.53;;
6902;SDS011;20232;49.408;8.702;2024-01-25T08:35:17;17.60;;;4.57;;
6902;SDS011;20232;49.408;8.702;2024-01-25T08:37:42;22.57;;;4.77;;
6902;SDS011;20232;49.408;8.702;2024-01-25T08:40:08;21.37;;;4.87;;
6902;SDS011;20232;49.408;8.702;2024-01-25T08:42:34;17.80;;;4.43;;
6902;SDS011;20232;49.408;8.702;2024-01-25T08:45:00;18.17;;;4.57;;
6902;SDS011;20232;49.408;8.702;2024-01-25T08:47:26;17.80;;;4.27;;
6902;SDS011;20232;49.408;8.702;2024-01-25T08:49:51;18.57;;;4.50;;
6902;SDS011;20232;49.408;8.702;2024-01-25T08:52:17;14.73;;;4.10;;
6902;SDS011;20232;49.408;8.702;2024-01-25T08:54:42;23.53;;;5.47;;
6902;SDS011;20232;49.408;8.702;2024-01-25T08:57:08;17.87;;;5.13;;
6902;SDS011;20232;49.408;8.702;2024-01-25T08:59:34;14.80;;;4.07;;
6902;SDS011;20232;49.408;8.702;2024-01-25T09:02:02;20.00;;;4.77;;
6902;SDS011;20232;49.408;8.702;2024-01-25T09:04:31;20.17;;;3.90;;
6902;SDS011;20232;49.408;8.702;2024-01-25T09:06:57;13.87;;;3.90;;
6902;SDS011;20232;49.408;8.702;2024-01-25T09:09:23;23.53;;;4.77;;
6902;SDS011;20232;49.408;8.702;2024-01-25T09:11:48;19.27;;;4.57;;
6902;SDS011;20232;49.408;8.702;2024-01-25T09:14:14;16.30;;;4.63;;
6902;SDS011;20232;49.408;8.702;2024-01-25T09:16:39;21.30;;;4.93;;
6902;SDS011;20232;49.408;8.702;2024-01-25T09:19:05;21.47;;;4.60;;
6902;SDS011;20232;49.408;8.702;2024-01-25T09:21:30;21.20;;;5.43;;
6902;SDS011;20232;49.408;8.702;2024-01-25T09:23:56;15.80;;;4.57;;
6902;SDS011;20232;49.408;8.702;2024-01-25T09:26:21;19.70;;;5.03;;
6902;SDS011;20232;49.408;8.702;2024-01-25T09:28:47;22.80;;;5.03;;
6902;SDS011;20232;49.408;8.702;2024-01-25T09:31:12;17.73;;;4.97;;
6902;SDS011;20232;49.408;8.702;2024-01-25T09:33:37;20.73;;;4.93;;
6902;SDS011;20232;49.408;8.702;2024-01-25T09:36:03;17.57;;;4.13;;
6902;SDS011;20232;49.408;8.702;2024-01-25T09:38:29;20.80;;;5.80;;
6902;SDS011;20232;49.408;8.702;2024-01-25T09:40:54;18.50;;;5.03;;
6902;SDS011;20232;49.408;8.702;2024-01-25T09:43:20;16.87;;;5.00;;
6902;SDS011;20232;49.408;8.702;2024-01-25T09:45:46;14.97;;;4.03;;
6902;SDS011;20232;49.408;8.702;2024-01-25T09:48:12;19.80;;;5.00;;
6902;SDS011;20232;49.408;8.702;2024-01-25T09:50:38;17.07;;;4.50;;
6902;SDS011;20232;49.408;8.702;2024-01-25T09:53:03;18.83;;;5.13;;
6902;SDS011;20232;49.408;8.702;2024-01-25T09:55:30;18.30;;;4.67;;
6902;SDS011;20232;49.408;8.702;2024-01-25T09:57:57;17.67;;;4.20;;
6902;SDS011;20232;49.408;8.702;2024-01-25T10:00:23;21.03;;;4.80;;
6902;SDS011;20232;49.408;8.702;2024-01-25T10:02:49;18.27;;;5.10;;
6902;SDS011;20232;49.408;8.702;2024-01-25T10:05:17;16.40;;;4.60;;
6902;SDS011;20232;49.408;8.702;2024-01-25T10:07:44;15.93;;;5.27;;
6902;SDS011;20232;49.408;8.702;2024-01-25T10:10:10;19.80;;;5.13;;
6902;SDS011;20232;49.408;8.702;2024-01-25T10:12:37;21.47;;;4.70;;
6902;SDS011;20232;49.408;8.702;2024-01-25T10:15:03;16.47;;;4.37;;
6902;SDS011;20232;49.408;8.702;2024-01-25T10:17:29;15.70;;;4.80;;
6902;SDS011;20232;49.408;8.702;2024-01-25T10:19:55;17.53;;;4.40;;
6902;SDS011;20232;49.408;8.702;2024-01-25T10:22:20;16.07;;;4.80;;
6902;SDS011;20232;49.408;8.702;2024-01-25T10:24:46;16.37;;;4.33;;
6902;SDS011;20232;49.408;8.702;2024-01-25T10:27:11;19.77;;;4.50;;
6902;SDS011;20232;49.408;8.702;2024-01-25T10:29:41;19.80;;;4.10;;
6902;SDS011;20232;49.408;8.702;2024-01-25T10:32:06;14.27;;;4.33;;
6902;SDS011;20232;49.408;8.702;2024-01-25T10:34:35;18.47;;;4.63;;
6902;SDS011;20232;49.408;8.702;2024-01-25T10:37:01;14.80;;;4.17;;
6902;SDS011;20232;49.408;8.702;2024-01-25T10:39:28;18.10;;;4.97;;
6902;SDS011;20232;49.408;8.702;2024-01-25T10:41:54;21.03;;;5.57;;
6902;SDS011;20232;49.408;8.702;2024-01-25T10:44:20;26.00;;;4.97;;
6902;SDS011;20232;49.408;8.702;2024-01-25T10:46:49;20.63;;;5.03;;
6902;SDS011;20232;49.408;8.702;2024-01-25T10:49:15;13.63;;;3.60;;
6902;SDS011;20232;49.408;8.702;2024-01-25T10:51:42;19.27;;;4.67;;
6902;SDS011;20232;49.408;8.702;2024-01-25T10:54:08;16.43;;;4.40;;
6902;SDS011;20232;49.408;8.702;2024-01-25T10:56:52;19.57;;;3.87;;
6902;SDS011;20232;49.408;8.702;2024-01-25T10:59:18;12.73;;;3.83;;
6902;SDS011;20232;49.408;8.702;2024-01-25T11:01:47;19.33;;;4.83;;
6902;SDS011;20232;49.408;8.702;2024-01-25T11:04:17;23.63;;;4.73;;
6902;SDS011;20232;49.408;8.702;2024-01-25T11:06:44;15.97;;;3.93;;
6902;SDS011;20232;49.408;8.702;2024-01-25T11:09:11;14.30;;;3.87;;
6902;SDS011;20232;49.408;8.702;2024-01-25T11:11:43;12.33;;;3.70;;
6902;SDS011;20232;49.408;8.702;2024-01-25T11:14:11;17.93;;;3.90;;
6902;SDS011;20232;49.408;8.702;2024-01-25T11:16:39;12.57;;;3.53;;
6902;SDS011;20232;49.408;8.702;2024-01-25T11:19:15;20.77;;;4.80;;
6902;SDS011;20232;49.408;8.702;2024-01-25T11:21:45;15.27;;;3.97;;
6902;SDS011;20232;49.408;8.702;2024-01-25T11:26:38;15.73;;;4.07;;
6902;SDS011;20232;49.408;8.702;2024-01-25T11:29:03;21.90;;;4.10;;
6902;SDS011;20232;49.408;8.702;2024-01-25T11:31:28;13.93;;;3.90;;
6902;SDS011;20232;49.408;8.702;2024-01-25T11:33:57;16.83;;;4.20;;
6902;SDS011;20232;49.408;8.702;2024-01-25T11:36:26;16.87;;;4.10;;
6902;SDS011;20232;49.408;8.702;2024-01-25T11:38:52;17.30;;;4.40;;
6902;SDS011;20232;49.408;8.702;2024-01-25T11:41:18;20.90;;;4.10;;
6902;SDS011;20232;49.408;8.702;2024-01-25T11:43:44;15.07;;;4.00;;
6902;SDS011;20232;49.408;8.702;2024-01-25T11:46:09;18.33;;;4.77;;
6902;SDS011;20232;49.408;8.702;2024-01-25T11:48:38;17.70;;;3.97;;
6902;SDS011;20232;49.408;8.702;2024-01-25T11:51:05;13.97;;;3.83;;
6902;SDS011;20232;49.408;8.702;2024-01-25T11:53:30;19.63;;;4.37;;
6902;SDS011;20232;49.408;8.702;2024-01-25T11:55:56;15.87;;;3.70;;
6902;SDS011;20232;49.408;8.702;2024-01-25T11:58:22;17.20;;;4.43;;
6902;SDS011;20232;49.408;8.702;2024-01-25T12:00:48;16.70;;;4.77;;
6902;SDS011;20232;49.408;8.702;2024-01-25T12:03:13;18.17;;;3.97;;
6902;SDS011;20232;49.408;8.702;2024-01-25T12:05:39;17.37;;;4.90;;
6902;SDS011;20232;49.408;8.702;2024-01-25T12:08:08;15.60;;;3.43;;
6902;SDS011;20232;49.408;8.702;2024-01-25T12:10:34;17.07;;;3.87;;
6902;SDS011;20232;49.408;8.702;2024-01-25T12:13:00;19.03;;;4.30;;
6902;SDS011;20232;49.408;8.702;2024-01-25T12:15:25;19.30;;;4.00;;
6902;SDS011;20232;49.408;8.702;2024-01-25T12:17:51;15.27;;;4.47;;
6902;SDS011;20232;49.408;8.702;2024-01-25T12:20:16;19.97;;;4.03;;
6902;SDS011;20232;49.408;8.702;2024-01-25T12:22:42;14.13;;;3.67;;
6902;SDS011;20232;49.408;8.702;2024-01-25T12:25:09;13.00;;;3.67;;
6902;SDS011;20232;49.408;8.702;2024-01-25T12:27:35;17.17;;;4.53;;
6902;SDS011;20232;49.408;8.702;2024-01-25T12:30:00;17.80;;;4.40;;
6902;SDS011;20232;49.408;8.702;2024-01-25T12:32:26;20.93;;;4.20;;
6902;SDS011;20232;49.408;8.702;2024-01-25T12:34:58;19.73;;;4.47;;
6902;SDS011;20232;49.408;8.702;2024-01-25T12:37:29;17.33;;;3.90;;
6902;SDS011;20232;49.408;8.702;2024-01-25T12:39:54;19.80;;;4.30;;
6902;SDS011;20232;49.408;8.702;2024-01-25T12:42:20;20.30;;;3.90;;
6902;SDS011;20232;49.408;8.702;2024-01-25T12:44:46;13.93;;;3.77;;
6902;SDS011;20232;49.408;8.702;2024-01-25T12:47:12;18.67;;;3.87;;
6902;SDS011;20232;49.408;8.702;2024-01-25T12:49:42;12.73;;;4.03;;
6902;SDS011;20232;49.408;8.702;2024-01-25T12:52:08;14.43;;;3.70;;
6902;SDS011;20232;49.408;8.702;2024-01-25T12:54:37;13.80;;;4.57;;
6902;SDS011;20232;49.408;8.702;2024-01-25T12:57:03;15.03;;;4.00;;
6902;SDS011;20232;49.408;8.702;2024-01-25T12:59:29;14.07;;;3.83;;
6902;SDS011;20232;49.408;8.702;2024-01-25T13:01:55;18.33;;;3.93;;
6902;SDS011;20232;49.408;8.702;2024-01-25T13:04:20;13.50;;;3.60;;
6902;SDS011;20232;49.408;8.702;2024-01-25T13:06:47;11.17;;;3.73;;
6902;SDS011;20232;49.408;8.702;2024-01-25T13:09:13;19.33;;;4.30;;
6902;SDS011;20232;49.408;8.702;2024-01-25T13:11:40;12.20;;;3.67;;
6902;SDS011;20232;49.408;8.702;2024-01-25T13:14:08;16.10;;;4.23;;
6902;SDS011;20232;49.408;8.702;2024-01-25T13:16:34;15.33;;;4.57;;
6902;SDS011;20232;49.408;8.702;2024-01-25T13:18:59;20.77;;;4.13;;
6902;SDS011;20232;49.408;8.702;2024-01-25T13:21:25;19.10;;;3.97;;
6902;SDS011;20232;49.408;8.702;2024-01-25T13:23:50;17.03;;;3.97;;
6902;SDS011;20232;49.408;8.702;2024-01-25T13:26:15;17.57;;;3.90;;
6902;SDS011;20232;49.408;8.702;2024-01-25T13:28:41;12.53;;;4.17;;
6902;SDS011;20232;49.408;8.702;2024-01-25T13:31:06;14.83;;;3.53;;
6902;SDS011;20232;49.408;8.702;2024-01-25T13:33:32;16.17;;;4.00;;
6902;SDS011;20232;49.408;8.702;2024-01-25T13:35:57;15.53;;;3.43;;
6902;SDS011;20232;49.408;8.702;2024-01-25T13:38:23;15.00;;;4.10;;
6902;SDS011;20232;49.408;8.702;2024-01-25T13:40:48;15.47;;;3.83;;
6902;SDS011;20232;49.408;8.702;2024-01-25T13:43:15;17.17;;;3.90;;
6902;SDS011;20232;49.408;8.702;2024-01-25T13:45:41;15.03;;;3.80;;
6902;SDS011;20232;49.408;8.702;2024-01-25T13:48:06;15.17;;;3.63;;
6902;SDS011;20232;49.408;8.702;2024-01-25T13:50:32;15.57;;;3.63;;
6902;SDS011;20232;49.408;8.702;2024-01-25T13:52:57;17.10;;;4.43;;
6902;SDS011;20232;49.408;8.702;2024-01-25T13:55:23;14.97;;;3.70;;
6902;SDS011;20232;49.408;8.702;2024-01-25T13:57:48;13.50;;;3.77;;
6902;SDS011;20232;49.408;8.702;2024-01-25T14:00:14;18.27;;;3.63;;
6902;SDS011;20232;49.408;8.702;2024-01-25T14:02:40;15.97;;;3.93;;
6902;SDS011;20232;49.408;8.702;2024-01-25T14:05:07;13.90;;;3.80;;
6902;SDS011;20232;49.408;8.702;2024-01-25T14:07:33;15.03;;;3.60;;
6902;SDS011;20232;49.408;8.702;2024-01-25T14:09:58;9.87;;;3.23;;
6902;SDS011;20232;49.408;8.702;2024-01-25T14:12:24;18.17;;;4.80;;
6902;SDS011;20232;49.408;8.702;2024-01-25T14:14:49;11.27;;;4.00;;
6902;SDS011;20232;49.408;8.702;2024-01-25T14:17:14;18.63;;;3.47;;
6902;SDS011;20232;49.408;8.702;2024-01-25T14:19:40;17.07;;;3.50;;
6902;SDS011;20232;49.408;8.702;2024-01-25T14:22:05;14.17;;;3.43;;
6902;SDS011;20232;49.408;8.702;2024-01-25T14:24:31;14.97;;;4.10;;
6902;SDS011;20232;49.408;8.702;2024-01-25T14:26:56;15.30;;;4.10;;
6902;SDS011;20232;49.408;8.702;2024-01-25T14:29:21;20.77;;;3.97;;
6902;SDS011;20232;49.408;8.702;2024-01-25T14:31:47;17.70;;;3.30;;
6902;SDS011;20232;49.408;8.702;2024-01-25T14:34:12;11.97;;;3.50;;
6902;SDS011;20232;49.408;8.702;2024-01-25T14:36:38;14.37;;;3.93;;
6902;SDS011;20232;49.408;8.702;2024-01-25T14:39:03;16.90;;;3.97;;
6902;SDS011;20232;49.408;8.702;2024-01-25T14:41:29;12.17;;;3.80;;
6902;SDS011;20232;49.408;8.702;2024-01-25T14:43:55;20.77;;;4.03;;
6902;SDS011;20232;49.408;8.702;2024-01-25T14:46:21;13.80;;;3.43;;
6902;SDS011;20232;49.408;8.702;2024-01-25T14:48:46;14.83;;;3.80;;
6902;SDS011;20232;49.408;8.702;2024-01-25T14:51:12;13.97;;;3.77;;
6902;SDS011;20232;49.408;8.702;2024-01-25T14:53:37;12.83;;;4.07;;
6902;SDS011;20232;49.408;8.702;2024-01-25T14:56:03;17.93;;;3.73;;
6902;SDS011;20232;49.408;8.702;2024-01-25T14:58:28;18.40;;;4.13;;
6902;SDS011;20232;49.408;8.702;2024-01-25T15:00:54;14.37;;;4.70;;
6902;SDS011;20232;49.408;8.702;2024-01-25T15:03:20;14.93;;;4.20;;
6902;SDS011;20232;49.408;8.702;2024-01-25T15:05:45;15.60;;;4.20;;
6902;SDS011;20232;49.408;8.702;2024-01-25T15:08:11;14.37;;;3.80;;
6902;SDS011;20232;49.408;8.702;2024-01-25T15:10:36;14.90;;;4.27;;
6902;SDS011;20232;49.408;8.702;2024-01-25T15:13:02;16.17;;;3.93;;
6902;SDS011;20232;49.408;8.702;2024-01-25T15:15:27;13.30;;;3.87;;
6902;SDS011;20232;49.408;8.702;2024-01-25T15:17:53;13.80;;;4.50;;
6902;SDS011;20232;49.408;8.702;2024-01-25T15:20:20;16.07;;;4.13;;
6902;SDS011;20232;49.408;8.702;2024-01-25T15:22:46;15.93;;;4.20;;
6902;SDS011;20232;49.408;8.702;2024-01-25T15:25:11;14.13;;;3.63;;
6902;SDS011;20232;49.408;8.702;2024-01-25T15:27:37;11.93;;;3.40;;
6902;SDS011;20232;49.408;8.702;2024-01-25T15:30:03;11.77;;;3.53;;
6902;SDS011;20232;49.408;8.702;2024-01-25T15:32:31;16.00;;;4.00;;
6902;SDS011;20232;49.408;8.702;2024-01-25T15:34:56;13.07;;;3.50;;
6902;SDS011;20232;49.408;8.702;2024-01-25T15:37:22;17.40;;;3.90;;
6902;SDS011;20232;49.408;8.702;2024-01-25T15:39:47;17.40;;;4.20;;
6902;SDS011;20232;49.408;8.702;2024-01-25T15:42:13;16.17;;;3.67;;
6902;SDS011;20232;49.408;8.702;2024-01-25T15:44:39;11.47;;;3.87;;
6902;SDS011;20232;49.408;8.702;2024-01-25T15:47:04;11.70;;;3.07;;
6902;SDS011;20232;49.408;8.702;2024-01-25T15:49:30;12.27;;;3.70;;
6902;SDS011;20232;49.408;8.702;2024-01-25T15:51:55;16.10;;;3.50;;
6902;SDS011;20232;49.408;8.702;2024-01-25T15:54:20;13.53;;;3.87;;
6902;SDS011;20232;49.408;8.702;2024-01-25T15:56:46;21.43;;;6.10;;
6902;SDS011;20232;49.408;8.702;2024-01-25T15:59:12;15.07;;;4.43;;
6902;SDS011;20232;49.408;8.702;2024-01-25T16:01:38;14.80;;;3.93;;
6902;SDS011;20232;49.408;8.702;2024-01-25T16:04:03;9.53;;;3.77;;
6902;SDS011;20232;49.408;8.702;2024-01-25T16:06:28;15.00;;;4.00;;
6902;SDS011;20232;49.408;8.702;2024-01-25T16:08:54;15.07;;;6.70;;
6902;SDS011;20232;49.408;8.702;2024-01-25T16:11:22;18.70;;;8.13;;
6902;SDS011;20232;49.408;8.702;2024-01-25T16:13:47;17.30;;;8.50;;
6902;SDS011;20232;49.408;8.702;2024-01-25T16:16:13;14.77;;;8.10;;
6902;SDS011;20232;49.408;8.702;2024-01-25T16:18:38;21.00;;;7.03;;
6902;SDS011;20232;49.408;8.702;2024-01-25T16:21:04;11.37;;;4.07;;
6902;SDS011;20232;49.408;8.702;2024-01-25T16:23:29;16.00;;;5.80;;
6902;SDS011;20232;49.408;8.702;2024-01-25T16:25:55;11.20;;;4.30;;
6902;SDS011;20232;49.408;8.702;2024-01-25T16:28:20;12.90;;;4.73;;
6902;SDS011;20232;49.408;8.702;2024-01-25T16:30:45;14.10;;;5.43;;
6902;SDS011;20232;49.408;8.702;2024-01-25T16:33:11;11.33;;;4.23;;
6902;SDS011;20232;49.408;8.702;2024-01-25T16:35:36;12.30;;;4.27;;
6902;SDS011;20232;49.408;8.702;2024-01-25T16:38:02;13.00;;;3.80;;
6902;SDS011;20232;49.408;8.702;2024-01-25T16:40:27;13.47;;;4.40;;
6902;SDS011;20232;49.408;8.702;2024-01-25T16:42:53;12.23;;;3.87;;
6902;SDS011;20232;49.408;8.702;2024-01-25T16:45:20;15.93;;;4.30;;
6902;SDS011;20232;49.408;8.702;2024-01-25T16:47:45;10.30;;;3.77;;
6902;SDS011;20232;49.408;8.702;2024-01-25T16:50:11;13.93;;;4.60;;
6902;SDS011;20232;49.408;8.702;2024-01-25T16:52:36;12.10;;;3.90;;
6902;SDS011;20232;49.408;8.702;2024-01-25T16:55:02;14.17;;;4.47;;
6902;SDS011;20232;49.408;8.702;2024-01-25T16:57:27;12.23;;;4.03;;
6902;SDS011;20232;49.408;8.702;2024-01-25T16:59:53;16.63;;;4.30;;
6902;SDS011;20232;49.408;8.702;2024-01-25T17:02:19;12.20;;;4.33;;
6902;SDS011;20232;49.408;8.702;2024-01-25T17:04:44;11.90;;;3.93;;
6902;SDS011;20232;49.408;8.702;2024-01-25T17:07:11;13.20;;;3.70;;
6902;SDS011;20232;49.408;8.702;2024-01-25T17:09:37;11.80;;;3.90;;
6902;SDS011;20232;49.408;8.702;2024-01-25T17:12:02;11.17;;;3.63;;
6902;SDS011;20232;49.408;8.702;2024-01-25T17:14:28;13.93;;;4.50;;
6902;SDS011;20232;49.408;8.702;2024-01-25T17:16:53;14.30;;;3.90;;
6902;SDS011;20232;49.408;8.702;2024-01-25T17:19:19;12.63;;;4.30;;
6902;SDS011;20232;49.408;8.702;2024-01-25T17:21:45;13.60;;;4.40;;
6902;SDS011;20232;49.408;8.702;2024-01-25T17:24:11;14.37;;;3.93;;
6902;SDS011;20232;49.408;8.702;2024-01-25T17:26:36;10.93;;;3.37;;
6902;SDS011;20232;49.408;8.702;2024-01-25T17:29:02;12.47;;;4.00;;
6902;SDS011;20232;49.408;8.702;2024-01-25T17:31:27;11.33;;;3.63;;
6902;SDS011;20232;49.408;8.702;2024-01-25T17:33:52;10.03;;;3.17;;
6902;SDS011;20232;49.408;8.702;2024-01-25T17:36:18;12.93;;;3.83;;
6902;SDS011;20232;49.408;8.702;2024-01-25T17:38:43;8.93;;;3.30;;
6902;SDS011;20232;49.408;8.702;2024-01-25T17:41:09;12.47;;;3.70;;
6902;SDS011;20232;49.408;8.702;2024-01-25T17:43:38;9.97;;;3.60;;
6902;SDS011;20232;49.408;8.702;2024-01-25T17:46:03;12.07;;;3.47;;
6902;SDS011;20232;49.408;8.702;2024-01-25T17:48:29;9.70;;;3.63;;
6902;SDS011;20232;49.408;8.702;2024-01-25T17:50:54;12.77;;;3.93;;
6902;SDS011;20232;49.408;8.702;2024-01-25T17:53:19;11.00;;;4.73;;
6902;SDS011;20232;49.408;8.702;2024-01-25T17:55:45;10.67;;;3.97;;
6902;SDS011;20232;49.408;8.702;2024-01-25T17:58:10;13.67;;;4.00;;
6902;SDS011;20232;49.408;8.702;2024-01-25T18:00:36;10.47;;;4.03;;
6902;SDS011;20232;49.408;8.702;2024-01-25T18:03:02;18.37;;;4.77;;
6902;SDS011;20232;49.408;8.702;2024-01-25T18:05:28;10.70;;;3.53;;
6902;SDS011;20232;49.408;8.702;2024-01-25T18:07:53;12.10;;;3.57;;
6902;SDS011;20232;49.408;8.702;2024-01-25T18:10:19;12.27;;;3.50;;
6902;SDS011;20232;49.408;8.702;2024-01-25T18:12:44;11.77;;;3.80;;
6902;SDS011;20232;49.408;8.702;2024-01-25T18:15:10;15.27;;;4.07;;
6902;SDS011;20232;49.408;8.702;2024-01-25T18:17:37;14.30;;;4.30;;
6902;SDS011;20232;49.408;8.702;2024-01-25T18:20:03;9.47;;;3.77;;
6902;SDS011;20232;49.408;8.702;2024-01-25T18:22:28;9.20;;;3.97;;
6902;SDS011;20232;49.408;8.702;2024-01-25T18:24:54;10.87;;;3.90;;
6902;SDS011;20232;49.408;8.702;2024-01-25T18:27:19;14.57;;;4.53;;
6902;SDS011;20232;49.408;8.702;2024-01-25T18:29:44;8.77;;;4.13;;
6902;SDS011;20232;49.408;8.702;2024-01-25T18:32:10;11.50;;;4.73;;
6902;SDS011;20232;49.408;8.702;2024-01-25T18:34:35;11.53;;;4.10;;
6902;SDS011;20232;49.408;8.702;2024-01-25T18:37:01;15.37;;;4.67;;
6902;SDS011;20232;49.408;8.702;2024-01-25T18:39:26;10.60;;;4.43;;
6902;SDS011;20232;49.408;8.702;2024-01-25T18:41:53;11.17;;;4.43;;
6902;SDS011;20232;49.408;8.702;2024-01-25T18:44:20;11.63;;;4.70;;
6902;SDS011;20232;49.408;8.702;2024-01-25T18:46:48;11.67;;;4.43;;
6902;SDS011;20232;49.408;8.702;2024-01-25T18:49:14;13.90;;;4.87;;
6902;SDS011;20232;49.408;8.702;2024-01-25T18:51:40;13.87;;;4.73;;
6902;SDS011;20232;49.408;8.702;2024-01-25T18:54:05;14.60;;;4.77;;
6902;SDS011;20232;49.408;8.702;2024-01-25T18:56:37;11.50;;;4.77;;
6902;SDS011;20232;49.408;8.702;2024-01-25T18:59:06;13.37;;;5.77;;
6902;SDS011;20232;49.408;8.702;2024-01-25T19:01:32;14.03;;;6.03;;
6902;SDS011;20232;49.408;8.702;2024-01-25T19:03:59;16.93;;;6.80;;
6902;SDS011;20232;49.408;8.702;2024-01-25T19:06:31;14.80;;;6.27;;
6902;SDS011;20232;49.408;8.702;2024-01-25T19:09:02;13.40;;;6.37;;
6902;SDS011;20232;49.408;8.702;2024-01-25T19:11:30;14.87;;;6.40;;
6902;SDS011;20232;49.408;8.702;2024-01-25T19:13:56;13.17;;;5.50;;
6902;SDS011;20232;49.408;8.702;2024-01-25T19:16:21;15.70;;;5.80;;
6902;SDS011;20232;49.408;8.702;2024-01-25T19:18:47;19.10;;;6.10;;
6902;SDS011;20232;49.408;8.702;2024-01-25T19:21:14;12.13;;;6.57;;
6902;SDS011;20232;49.408;8.702;2024-01-25T19:23:39;11.60;;;5.87;;
6902;SDS011;20232;49.408;8.702;2024-01-25T19:26:04;15.47;;;8.43;;
6902;SDS011;20232;49.408;8.702;2024-01-25T19:28:30;14.70;;;7.77;;
6902;SDS011;20232;49.408;8.702;2024-01-25T19:30:56;16.27;;;7.90;;
6902;SDS011;20232;49.408;8.702;2024-01-25T19:33:22;18.97;;;8.00;;
6902;SDS011;20232;49.408;8.702;2024-01-25T19:35:48;16.07;;;8.17;;
6902;SDS011;20232;49.408;8.702;2024-01-25T19:38:16;11.07;;;7.67;;
6902;SDS011;20232;49.408;8.702;2024-01-25T19:40:42;17.57;;;7.40;;
6902;SDS011;20232;49.408;8.702;2024-01-25T19:43:07;14.77;;;6.77;;